APL Coral — WDF6832 — position and weather

sailwx.info

Track history (hours):
 
Tides and Currents Weather Stations Pressure Air Temp Water Temp Dewpoint Dewpoint Depression Visibility Wind Speed Wind Dir Waves Ship Positions

APL Coral

Owner: APL Maritime Ltd., Bethesda, MD. More information available from US FCC via Universal Licensing System and Coast Guard Vessel Documentation Center.

Last reported at 2015-Jan-29 13:33 UTC. Time now 2015-Jan-29 14:18 UTC.
Position N 01°16' E 103°51'.

Length 275 m; draft 9.9 m.

Type: Cargo ship. MMSI: 367478280.

Date/timePositionNaut miles runAvg speedWind from/ knotsBaromVisibWave heightAir tempDewpointWater temp
2015-Jan-29 13:33N 01°16' E 103°51'0 0.0
2015-Jan-29 12:34N 01°16' E 103°51'0 0.0
2015-Jan-29 11:34N 01°16' E 103°51'0 0.0
2015-Jan-29 10:33N 01°16' E 103°51'0 0.0
2015-Jan-29 09:33N 01°16' E 103°51'0 0.0
2015-Jan-29 08:33N 01°16' E 103°51'0 0.0
2015-Jan-29 07:32N 01°16' E 103°51'0 0.0
2015-Jan-29 06:34N 01°16' E 103°51'0 0.3
2015-Jan-29 05:33N 01°16' E 103°51'3 2.7
2015-Jan-29 04:34N 01°14' E 103°53'1110.4
2015-Jan-29 03:29N 01°16' E 104°04'1313.8
2015-Jan-29 02:31N 01°19' E 104°17'48218.2
2015-Jan-28 00:00N 08°36' E 100°54'   230 / 71008.810.8 0.526.024.628.0
2015-Jan-24 12:00N 07°00' E 101°48'37414.1 020 / 51009.8 5.4 26.023.127.0
2015-Jan-23 09:32N 01°19' E 104°22'1919.1
2015-Jan-23 08:33N 01°15' E 104°04'1212.3
2015-Jan-23 07:33N 01°14' E 103°52'2 1.5
2015-Jan-23 06:22N 01°16' E 103°51'0 0.0
2015-Jan-23 05:25N 01°16' E 103°51'0 0.0
2015-Jan-23 04:33N 01°16' E 103°51'0 0.0
2015-Jan-23 03:33N 01°16' E 103°51'0 0.0
2015-Jan-23 02:33N 01°16' E 103°51'0 0.0
2015-Jan-23 01:33N 01°16' E 103°51'0 0.0
2015-Jan-23 00:33N 01°16' E 103°51'0 0.0
2015-Jan-22 23:33N 01°16' E 103°51'0 0.0
2015-Jan-22 22:33N 01°16' E 103°51'0 0.0
2015-Jan-22 21:33N 01°16' E 103°51'0 0.0
2015-Jan-22 20:33N 01°16' E 103°51'0 0.0
2015-Jan-22 19:33N 01°16' E 103°51'0 0.0
2015-Jan-22 18:33N 01°16' E 103°51'0 0.0
2015-Jan-22 17:33N 01°16' E 103°51'0 0.0
2015-Jan-22 16:32N 01°16' E 103°51'0 0.0
2015-Jan-22 15:33N 01°16' E 103°51'0 0.0
2015-Jan-22 14:33N 01°16' E 103°51'0 0.0
2015-Jan-22 13:33N 01°16' E 103°51'0 0.0
2015-Jan-22 12:33N 01°16' E 103°51'0 0.0
2015-Jan-22 11:33N 01°16' E 103°51'0 0.0
2015-Jan-22 10:33N 01°16' E 103°51'0 0.0
2015-Jan-22 09:33N 01°16' E 103°51'0 0.0
2015-Jan-22 08:33N 01°16' E 103°51'0 0.0
2015-Jan-22 07:33N 01°16' E 103°51'1 1.1
2015-Jan-22 06:33N 01°15' E 103°52'2 1.8
2015-Jan-22 05:33N 01°14' E 103°53'0 0.1
2015-Jan-22 04:33N 01°14' E 103°53'2 1.5
2015-Jan-22 03:33N 01°13' E 103°53'5 5.2
2015-Jan-22 02:33N 01°10' E 103°48'8 7.5
2015-Jan-22 01:26N 01°05' E 103°42'67 9.3
2015-Jan-21 18:15N 01°39' E 102°44'811.0
2015-Jan-21 17:33N 01°43' E 102°37'1211.3
2015-Jan-21 16:30N 01°48' E 102°27'1111.2
2015-Jan-21 15:34N 01°53' E 102°17'4810.6
2015-Jan-21 11:00N 02°18' E 101°36'12611.5 080 / 81011.010.8 29.026.229.0
2015-Jan-21 00:00N 03°24' E 099°48'19516.3 090 / 31012.010.8 29.024.830.0
2015-Jan-20 12:00N 05°36' E 097°24'15813.2 090 / 151010.010.8 1.030.022.730.0
2015-Jan-20 00:00N 06°06' E 094°48'48 8.0 080 / 141009.010.8 1.529.023.230.0
2015-Jan-19 18:00N 06°06' E 094°00'   070 / 161010.010.8 28.022.930.0
Track history (hours):
 
Tides and Currents Weather Stations Pressure Air Temp Water Temp Dewpoint Dewpoint Depression Visibility Wind Speed Wind Dir Waves Ship Positions

APL Coral

Owner: APL Maritime Ltd., Bethesda, MD. More information available from US FCC via Universal Licensing System and Coast Guard Vessel Documentation Center.

Last reported at 2015-Jan-29 13:33 UTC. Time now 2015-Jan-29 14:18 UTC.
Position N 01°16' E 103°51'.

Length 275 m; draft 9.9 m.

Type: Cargo ship. MMSI: 367478280.

Date/timePositionNaut miles runAvg speedWind from/ knotsBaromVisibWave heightAir tempDewpointWater temp
2015-Jan-29 13:33N 01°16' E 103°51'0 0.0
2015-Jan-29 12:34N 01°16' E 103°51'0 0.0
2015-Jan-29 11:34N 01°16' E 103°51'0 0.0
2015-Jan-29 10:33N 01°16' E 103°51'0 0.0
2015-Jan-29 09:33N 01°16' E 103°51'0 0.0
2015-Jan-29 08:33N 01°16' E 103°51'0 0.0
2015-Jan-29 07:32N 01°16' E 103°51'0 0.0
2015-Jan-29 06:34N 01°16' E 103°51'0 0.3
2015-Jan-29 05:33N 01°16' E 103°51'3 2.7
2015-Jan-29 04:34N 01°14' E 103°53'1110.4
2015-Jan-29 03:29N 01°16' E 104°04'1313.8
2015-Jan-29 02:31N 01°19' E 104°17'48218.2
2015-Jan-28 00:00N 08°36' E 100°54'   230 / 71008.810.8 0.526.024.628.0
2015-Jan-24 12:00N 07°00' E 101°48'37414.1 020 / 51009.8 5.4 26.023.127.0
2015-Jan-23 09:32N 01°19' E 104°22'1919.1
2015-Jan-23 08:33N 01°15' E 104°04'1212.3
2015-Jan-23 07:33N 01°14' E 103°52'2 1.5
2015-Jan-23 06:22N 01°16' E 103°51'0 0.0
2015-Jan-23 05:25N 01°16' E 103°51'0 0.0
2015-Jan-23 04:33N 01°16' E 103°51'0 0.0
2015-Jan-23 03:33N 01°16' E 103°51'0 0.0
2015-Jan-23 02:33N 01°16' E 103°51'0 0.0
2015-Jan-23 01:33N 01°16' E 103°51'0 0.0
2015-Jan-23 00:33N 01°16' E 103°51'0 0.0
2015-Jan-22 23:33N 01°16' E 103°51'0 0.0
2015-Jan-22 22:33N 01°16' E 103°51'0 0.0
2015-Jan-22 21:33N 01°16' E 103°51'0 0.0
2015-Jan-22 20:33N 01°16' E 103°51'0 0.0
2015-Jan-22 19:33N 01°16' E 103°51'0 0.0
2015-Jan-22 18:33N 01°16' E 103°51'0 0.0
2015-Jan-22 17:33N 01°16' E 103°51'0 0.0
2015-Jan-22 16:32N 01°16' E 103°51'0 0.0
2015-Jan-22 15:33N 01°16' E 103°51'0 0.0
2015-Jan-22 14:33N 01°16' E 103°51'0 0.0
2015-Jan-22 13:33N 01°16' E 103°51'0 0.0
2015-Jan-22 12:33N 01°16' E 103°51'0 0.0
2015-Jan-22 11:33N 01°16' E 103°51'0 0.0
2015-Jan-22 10:33N 01°16' E 103°51'0 0.0
2015-Jan-22 09:33N 01°16' E 103°51'0 0.0
2015-Jan-22 08:33N 01°16' E 103°51'0 0.0
2015-Jan-22 07:33N 01°16' E 103°51'1 1.1
2015-Jan-22 06:33N 01°15' E 103°52'2 1.8
2015-Jan-22 05:33N 01°14' E 103°53'0 0.1
2015-Jan-22 04:33N 01°14' E 103°53'2 1.5
2015-Jan-22 03:33N 01°13' E 103°53'5 5.2
2015-Jan-22 02:33N 01°10' E 103°48'8 7.5
2015-Jan-22 01:26N 01°05' E 103°42'67 9.3
2015-Jan-21 18:15N 01°39' E 102°44'811.0
2015-Jan-21 17:33N 01°43' E 102°37'1211.3
2015-Jan-21 16:30N 01°48' E 102°27'1111.2
2015-Jan-21 15:34N 01°53' E 102°17'4810.6
2015-Jan-21 11:00N 02°18' E 101°36'12611.5 080 / 81011.010.8 29.026.229.0
2015-Jan-21 00:00N 03°24' E 099°48'19516.3 090 / 31012.010.8 29.024.830.0
2015-Jan-20 12:00N 05°36' E 097°24'15813.2 090 / 151010.010.8 1.030.022.730.0
2015-Jan-20 00:00N 06°06' E 094°48'48 8.0 080 / 141009.010.8 1.529.023.230.0
2015-Jan-19 18:00N 06°06' E 094°00'   070 / 161010.010.8 28.022.930.0

Dump ship's entire track history